Time;durP1;ratioP1;P1;durP2;ratioP2;P2;SDS_P1;SDS_P2;PMS_P1;PMS_P2;Temp;Humidity;BMP_temperature;BMP_pressure;BME280_temperature;BME280_humidity;BME280_pressure;Samples;Min_cycle;Max_cycle;Signal;HPM_P1;HPM_P2
2023/05/07 00:02:14;;;;;;;;;11.75;10.50;;;;;14.24;72.16;99895.13;5119554;28;8815;-59
2023/05/07 00:04:41;;;;;;;;;11.00;11.00;;;;;14.24;72.62;99894.28;5119590;28;8837;-59
2023/05/07 00:07:09;;;;;;;;;15.50;14.00;;;;;14.23;72.28;99898.81;5119373;28;9533;-57
2023/05/07 00:09:37;;;;;;;;;18.00;16.00;;;;;14.22;72.55;99898.94;5119647;28;8831;-59
2023/05/07 00:12:05;;;;;;;;;16.25;15.00;;;;;14.21;72.98;99900.75;5118816;28;8886;-59
2023/05/07 00:14:33;;;;;;;;;11.50;11.50;;;;;14.21;72.40;99891.91;5119186;28;8854;-60
2023/05/07 00:17:01;;;;;;;;;18.50;16.75;;;;;14.22;72.68;99897.13;5119099;28;8843;-59
2023/05/07 00:19:28;;;;;;;;;20.75;19.75;;;;;14.23;72.43;99903.28;5118892;28;8898;-58
2023/05/07 00:21:56;;;;;;;;;14.75;14.00;;;;;14.24;72.46;99896.94;5119259;28;8832;-60
2023/05/07 00:24:24;;;;;;;;;17.00;17.00;;;;;14.24;72.66;99899.63;5119074;28;8847;-60
2023/05/07 00:26:52;;;;;;;;;17.00;16.25;;;;;14.26;72.41;99897.66;5119556;28;8844;-60
2023/05/07 00:29:20;;;;;;;;;24.75;17.25;;;;;14.27;72.40;99905.53;5119645;28;9533;-59
2023/05/07 00:31:47;;;;;;;;;14.00;10.50;;;;;14.29;72.68;99900.03;5118826;28;8850;-59
2023/05/07 00:34:15;;;;;;;;;23.00;21.00;;;;;14.30;72.49;99904.41;5118913;28;8839;-60
2023/05/07 00:36:44;;;;;;;;;20.50;19.00;;;;;14.33;72.11;99907.63;5118857;28;8828;-59
2023/05/07 00:39:12;;;;;;;;;15.00;11.50;;;;;14.34;72.58;99895.09;5119086;28;8848;-60
2023/05/07 00:41:40;;;;;;;;;18.00;17.00;;;;;14.36;72.43;99903.81;5118636;28;8828;-59
2023/05/07 00:44:07;;;;;;;;;8.50;7.00;;;;;14.38;71.91;99901.84;5119162;28;8858;-60
2023/05/07 00:46:35;;;;;;;;;20.00;16.50;;;;;14.39;72.45;99898.16;5118654;28;8824;-60
2023/05/07 00:49:03;;;;;;;;;15.00;14.50;;;;;14.39;71.95;99904.38;5119099;28;8843;-60
2023/05/07 00:51:31;;;;;;;;;18.25;16.00;;;;;14.39;71.98;99901.69;5119024;28;8851;-60
2023/05/07 00:53:58;;;;;;;;;17.00;13.50;;;;;14.39;71.99;99896.34;5118391;28;8832;-58
2023/05/07 00:56:26;;;;;;;;;12.50;10.50;;;;;14.39;72.31;99892.81;5118892;28;8912;-59
2023/05/07 00:58:54;;;;;;;;;13.00;12.50;;;;;14.39;72.26;99893.66;5119056;28;8840;-59
2023/05/07 01:01:22;;;;;;;;;21.50;21.00;;;;;14.39;72.10;99893.66;5118814;28;8838;-60
2023/05/07 01:03:50;;;;;;;;;17.25;17.25;;;;;14.41;72.36;99890.84;5118832;28;8824;-60
2023/05/07 01:06:18;;;;;;;;;16.75;16.00;;;;;14.41;72.52;99890.84;5117752;28;8823;-58
2023/05/07 01:08:46;;;;;;;;;24.75;22.00;;;;;14.41;72.45;99890.84;5118735;28;8920;-58
2023/05/07 01:11:13;;;;;;;;;21.00;15.75;;;;;14.42;72.04;99888.00;5117820;28;8824;-59
2023/05/07 01:13:41;;;;;;;;;14.25;13.25;;;;;14.44;72.40;99885.19;5118249;28;8836;-60
2023/05/07 01:16:09;;;;;;;;;20.50;18.00;;;;;14.45;72.58;99881.50;5118247;28;8840;-60
2023/05/07 01:18:37;;;;;;;;;16.00;15.25;;;;;14.44;72.73;99882.50;5118381;28;8859;-60
2023/05/07 01:21:05;;;;;;;;;15.00;13.50;;;;;14.45;72.07;99881.50;5118041;28;8838;-60
2023/05/07 01:23:32;;;;;;;;;16.00;13.50;;;;;14.42;72.65;99877.28;5118176;28;8823;-58
2023/05/07 01:26:00;;;;;;;;;14.00;12.75;;;;;14.40;72.45;99883.75;5117917;28;9549;-60
2023/05/07 01:28:28;;;;;;;;;18.50;17.00;;;;;14.37;72.43;99878.72;5118138;28;8848;-60
2023/05/07 01:30:56;;;;;;;;;15.50;11.50;;;;;14.35;72.72;99880.72;5118311;28;8866;-59
2023/05/07 01:33:24;;;;;;;;;11.00;9.50;;;;;14.32;72.52;99875.63;5117797;28;8827;-60
2023/05/07 01:35:51;;;;;;;;;17.50;14.25;;;;;14.28;72.79;99879.59;5117949;28;8816;-60
2023/05/07 01:38:20;;;;;;;;;9.75;8.00;;;;;14.25;72.89;99874.53;5118342;28;9574;-59
2023/05/07 01:40:48;;;;;;;;;15.50;15.25;;;;;14.22;72.96;99877.50;5118007;28;8831;-59
2023/05/07 01:43:15;;;;;;;;;17.25;16.00;;;;;14.20;72.74;99871.47;5118142;28;8816;-60
2023/05/07 01:45:44;;;;;;;;;14.00;13.00;;;;;14.19;73.15;99870.59;5118173;28;8824;-57
2023/05/07 01:48:12;;;;;;;;;16.50;16.50;;;;;14.17;73.29;99874.38;5117538;28;8839;-57
2023/05/07 01:50:40;;;;;;;;;17.75;16.25;;;;;14.16;73.17;99876.22;5117903;28;8956;-58
2023/05/07 01:53:07;;;;;;;;;28.00;25.00;;;;;14.16;73.28;99878.06;5117882;28;8840;-59
2023/05/07 01:55:36;;;;;;;;;20.00;17.75;;;;;14.14;73.00;99872.00;5117882;28;8815;-59
2023/05/07 01:58:04;;;;;;;;;22.00;21.50;;;;;14.14;73.13;99872.00;5117513;28;8862;-58
2023/05/07 02:00:31;;;;;;;;;20.50;16.50;;;;;14.11;73.44;99865.09;5117374;28;8812;-57
2023/05/07 02:03:00;;;;;;;;;19.00;17.75;;;;;14.11;73.22;99867.78;5117731;28;8823;-58
2023/05/07 02:05:28;;;;;;;;;15.50;12.50;;;;;14.11;72.97;99878.50;5117467;28;8945;-60
2023/05/07 02:07:56;;;;;;;;;18.50;17.00;;;;;14.11;73.01;99875.81;5117359;28;8824;-59
2023/05/07 02:10:23;;;;;;;;;16.50;15.00;;;;;14.12;73.04;99882.84;5117460;28;8850;-59
2023/05/07 02:12:51;;;;;;;;;19.00;17.50;;;;;14.14;72.67;99877.38;5117288;28;9583;-60
2023/05/07 02:15:19;;;;;;;;;18.50;16.00;;;;;14.16;73.03;99878.06;5117347;28;8828;-58
2023/05/07 02:17:47;;;;;;;;;16.00;15.00;;;;;14.15;73.10;99881.72;5116581;28;8851;-59
2023/05/07 02:20:15;;;;;;;;;14.75;12.75;;;;;14.17;72.90;99880.59;5116771;28;8862;-60
2023/05/07 02:22:42;;;;;;;;;14.75;14.50;;;;;14.17;73.39;99872.56;5116486;28;8865;-60
2023/05/07 02:25:10;;;;;;;;;13.00;13.00;;;;;14.19;72.64;99869.78;5116980;28;8836;-57
2023/05/07 02:27:37;;;;;;;;;19.50;18.00;;;;;14.21;72.96;99859.75;5117193;28;8940;-59
2023/05/07 02:30:05;;;;;;;;;15.75;15.75;;;;;14.23;72.98;99873.84;5117025;28;8927;-59
2023/05/07 02:32:33;;;;;;;;;16.00;16.00;;;;;14.20;73.06;99869.59;5116799;28;8863;-60
2023/05/07 02:35:01;;;;;;;;;18.25;16.00;;;;;14.19;72.75;99877.81;5116952;28;8823;-60
2023/05/07 02:37:29;;;;;;;;;21.00;18.50;;;;;14.14;73.41;99878.22;5117075;28;8815;-60
2023/05/07 02:39:57;;;;;;;;;16.00;14.00;;;;;14.12;73.12;99869.47;5116954;28;8824;-58
2023/05/07 02:42:24;;;;;;;;;16.50;15.00;;;;;14.08;73.40;99873.44;5116808;28;8840;-60
2023/05/07 02:44:52;;;;;;;;;16.50;15.25;;;;;14.05;73.22;99872.88;5117172;28;8861;-60
2023/05/07 02:47:20;;;;;;;;;18.50;16.00;;;;;14.01;73.32;99868.78;5116951;28;9540;-59
2023/05/07 02:49:47;;;;;;;;;10.00;9.75;;;;;13.99;73.69;99865.44;5117242;28;8961;-60
2023/05/07 02:52:15;;;;;;;;;14.00;13.50;;;;;13.97;73.26;99870.09;5116591;28;8833;-60
2023/05/07 02:54:43;;;;;;;;;18.25;16.00;;;;;13.94;73.75;99863.19;5116426;28;8944;-59
2023/05/07 02:57:10;;;;;;;;;20.00;15.50;;;;;13.92;74.12;99862.50;5116296;28;8844;-60
2023/05/07 02:59:38;;;;;;;;;12.75;10.00;;;;;13.90;73.68;99861.78;5116828;28;8844;-59
2023/05/07 03:02:05;;;;;;;;;16.00;13.50;;;;;13.87;73.89;99863.91;5116381;28;8824;-60
2023/05/07 03:04:33;;;;;;;;;12.25;12.25;;;;;13.87;73.87;99855.88;5116390;28;8856;-60
2023/05/07 03:07:01;;;;;;;;;16.50;14.25;;;;;13.87;73.74;99858.53;5116080;28;8876;-60
2023/05/07 03:09:29;;;;;;;;;12.75;11.50;;;;;13.84;74.12;99858.84;5116332;28;9489;-59
2023/05/07 03:11:58;;;;;;;;;15.75;15.75;;;;;13.79;73.62;99856.59;5115890;28;8858;-59
2023/05/07 03:14:26;;;;;;;;;15.50;14.50;;;;;13.76;73.90;99861.41;5116543;28;8834;-59
2023/05/07 03:16:55;;;;;;;;;14.75;14.75;;;;;13.68;74.71;99855.94;5116113;28;8828;-60
2023/05/07 03:19:23;;;;;;;;;18.50;17.50;;;;;13.62;74.28;99857.34;5116441;28;8838;-59
2023/05/07 03:21:51;;;;;;;;;15.25;15.00;;;;;13.58;74.50;99858.59;5116215;28;8823;-58
2023/05/07 03:24:18;;;;;;;;;15.00;12.25;;;;;13.54;75.11;99859.03;5115803;28;8859;-59
2023/05/07 03:26:46;;;;;;;;;12.50;12.00;;;;;13.50;74.24;99862.97;5116164;28;8816;-59
2023/05/07 03:29:14;;;;;;;;;15.75;14.00;;;;;13.48;74.40;99864.94;5116091;28;8840;-60
2023/05/07 03:31:42;;;;;;;;;12.50;11.00;;;;;13.43;74.81;99861.88;5116169;28;9490;-60
2023/05/07 03:34:09;;;;;;;;;11.50;8.50;;;;;13.43;75.01;99860.03;5116161;28;8881;-59
2023/05/07 03:36:37;;;;;;;;;12.50;9.50;;;;;13.43;74.30;99867.22;5115883;28;8820;-60
2023/05/07 03:39:05;;;;;;;;;11.75;10.25;;;;;13.42;74.96;99868.19;5115821;28;8911;-60
2023/05/07 03:41:33;;;;;;;;;11.50;10.00;;;;;13.42;74.42;99868.19;5116605;28;8824;-59
2023/05/07 03:44:00;;;;;;;;;13.25;12.50;;;;;13.43;74.68;99862.72;5116321;28;8844;-59
2023/05/07 03:46:28;;;;;;;;;12.50;10.50;;;;;13.44;74.79;99867.06;5116525;28;8839;-59
2023/05/07 03:48:56;;;;;;;;;6.00;5.50;;;;;13.45;74.01;99867.94;5115869;28;8855;-59
2023/05/07 03:51:24;;;;;;;;;14.25;12.50;;;;;13.45;74.67;99867.94;5115863;28;8835;-58
2023/05/07 03:53:52;;;;;;;;;12.00;11.50;;;;;13.46;74.69;99873.16;5115833;28;8812;-59
2023/05/07 03:56:20;;;;;;;;;16.75;14.50;;;;;13.47;74.23;99869.47;5116272;28;8820;-60
2023/05/07 03:58:48;;;;;;;;;15.25;14.25;;;;;13.49;73.93;99877.34;5116051;28;8956;-60
2023/05/07 04:01:16;;;;;;;;;13.00;13.00;;;;;13.50;74.33;99879.88;5116171;28;9521;-59
2023/05/07 04:03:43;;;;;;;;;17.50;17.00;;;;;13.51;74.85;99878.91;5115446;28;8872;-58
2023/05/07 04:06:12;;;;;;;;;15.75;13.00;;;;;13.53;74.38;99884.94;5115662;28;8943;-59
2023/05/07 04:08:39;;;;;;;;;15.75;14.00;;;;;13.56;74.09;99889.16;5115695;28;8838;-56
2023/05/07 04:11:07;;;;;;;;;15.25;15.25;;;;;13.57;74.02;99883.69;5115318;28;8834;-58
2023/05/07 04:13:35;;;;;;;;;17.75;14.00;;;;;13.58;73.88;99885.38;5115292;28;8804;-59
2023/05/07 04:16:03;;;;;;;;;16.75;15.50;;;;;13.60;74.26;99887.91;5115731;28;8808;-60
2023/05/07 04:18:31;;;;;;;;;12.75;11.75;;;;;13.62;74.24;99888.59;5115823;28;8824;-60
2023/05/07 04:20:58;;;;;;;;;10.50;10.00;;;;;13.63;74.51;99888.47;5115744;28;9563;-59
2023/05/07 04:23:26;;;;;;;;;13.25;12.50;;;;;13.65;73.66;99890.97;5118833;28;8843;-59
2023/05/07 04:25:54;;;;;;;;;16.50;12.75;;;;;13.67;73.45;99895.22;5119437;28;8820;-60
2023/05/07 04:28:21;;;;;;;;;11.00;9.75;;;;;13.71;73.87;99896.63;5119667;28;8879;-58
2023/05/07 04:30:50;;;;;;;;;11.50;9.00;;;;;13.73;74.08;99886.63;5119990;28;8836;-60
2023/05/07 04:33:18;;;;;;;;;13.00;10.00;;;;;13.77;73.61;99887.19;5119367;28;8808;-60
2023/05/07 04:35:46;;;;;;;;;10.00;9.25;;;;;13.80;73.86;99890.41;5119235;28;8904;-57
2023/05/07 04:38:13;;;;;;;;;12.50;12.25;;;;;13.84;73.68;99882.94;5118993;28;8808;-59
2023/05/07 04:40:41;;;;;;;;;12.50;12.50;;;;;13.88;73.95;99884.34;5119448;28;8836;-58
2023/05/07 04:43:09;;;;;;;;;14.50;14.50;;;;;13.90;73.06;99885.88;5119275;28;8839;-60
2023/05/07 04:45:37;;;;;;;;;11.75;11.25;;;;;13.93;73.67;99890.97;5120072;28;8921;-60
2023/05/07 04:48:05;;;;;;;;;9.00;6.50;;;;;13.93;73.41;99890.97;5118943;28;8851;-58
2023/05/07 04:50:32;;;;;;;;;14.50;11.50;;;;;13.96;73.46;99892.50;5118456;28;8942;-58
2023/05/07 04:53:01;;;;;;;;;15.75;13.50;;;;;13.95;73.54;99894.31;5118470;28;8832;-57
2023/05/07 04:55:30;;;;;;;;;14.00;12.50;;;;;13.97;73.08;99891.50;5119015;28;8836;-59
2023/05/07 04:57:58;;;;;;;;;11.00;10.00;;;;;13.99;73.26;99889.53;5118466;28;8848;-59
2023/05/07 05:00:26;;;;;;;;;12.00;10.00;;;;;14.02;73.16;99899.94;5117495;28;8883;-59
2023/05/07 05:02:53;;;;;;;;;12.00;10.00;;;;;14.05;73.08;99895.13;5117425;28;8851;-60
2023/05/07 05:05:21;;;;;;;;;12.00;10.00;;;;;14.10;73.09;99908.09;5117748;28;8828;-60
2023/05/07 05:07:49;;;;;;;;;12.00;12.00;;;;;14.14;73.24;99899.66;5118275;28;8879;-60
2023/05/07 05:10:17;;;;;;;;;11.00;9.00;;;;;14.20;72.84;99906.28;5117886;28;8940;-61
2023/05/07 05:12:44;;;;;;;;;7.00;6.50;;;;;14.24;72.94;99907.66;5117934;28;8831;-60
2023/05/07 05:15:12;;;;;;;;;8.75;7.50;;;;;14.30;73.02;99901.72;5118559;28;8831;-61
2023/05/07 05:17:40;;;;;;;;;7.00;7.00;;;;;14.35;72.70;99899.47;5118813;28;9521;-60
2023/05/07 05:20:09;;;;;;;;;7.00;7.00;;;;;14.40;72.60;99899.84;5118274;28;8844;-59
2023/05/07 05:22:37;;;;;;;;;8.50;8.50;;;;;14.46;73.01;99896.59;5118588;28;8816;-60
2023/05/07 05:25:05;;;;;;;;;10.50;10.00;;;;;14.52;72.20;99904.03;5118553;28;9500;-60
2023/05/07 05:27:33;;;;;;;;;12.50;12.25;;;;;14.57;72.21;99907.94;5118221;28;8812;-61
2023/05/07 05:30:00;;;;;;;;;9.25;9.25;;;;;14.61;72.42;99905.81;5117940;28;8874;-61
2023/05/07 05:32:28;;;;;;;;;11.00;10.00;;;;;14.64;72.51;99908.22;5117582;28;8844;-59
2023/05/07 05:34:56;;;;;;;;;9.75;9.75;;;;;14.69;71.84;99906.78;5118398;28;8811;-62
2023/05/07 05:37:24;;;;;;;;;11.50;9.50;;;;;14.77;72.46;99908.69;5118150;28;8838;-61
2023/05/07 05:39:52;;;;;;;;;9.00;9.00;;;;;14.84;72.33;99915.16;5116896;28;8905;-59
2023/05/07 05:42:20;;;;;;;;;6.75;6.25;;;;;14.89;71.63;99913.75;5118026;28;8855;-60
2023/05/07 05:44:47;;;;;;;;;7.00;7.00;;;;;14.96;71.86;99908.59;5118623;28;8840;-62
2023/05/07 05:47:15;;;;;;;;;7.00;6.25;;;;;15.01;71.61;99904.47;5117897;28;8831;-61
2023/05/07 05:49:43;;;;;;;;;4.50;4.50;;;;;15.09;72.05;99909.09;5117457;28;8827;-61
2023/05/07 05:52:11;;;;;;;;;6.75;6.75;;;;;15.16;71.92;99913.69;5116980;28;8970;-61
2023/05/07 05:54:38;;;;;;;;;10.00;10.00;;;;;15.24;71.77;99908.41;5117515;28;8831;-61
2023/05/07 05:57:06;;;;;;;;;8.00;8.00;;;;;15.34;71.19;99903.00;5117732;28;8842;-62
2023/05/07 05:59:34;;;;;;;;;7.50;7.00;;;;;15.47;70.99;99909.66;5117906;28;8874;-61
2023/05/07 06:02:01;;;;;;;;;9.50;9.00;;;;;15.62;70.61;99907.31;5117358;28;8966;-61
2023/05/07 06:04:29;;;;;;;;;6.00;6.00;;;;;15.77;70.23;99916.50;5117501;28;8924;-62
2023/05/07 06:06:57;;;;;;;;;6.75;6.75;;;;;15.96;70.38;99919.84;5117338;28;8870;-60
2023/05/07 06:09:25;;;;;;;;;7.50;7.00;;;;;16.09;69.93;99919.41;5117373;28;9520;-59
2023/05/07 06:11:52;;;;;;;;;7.50;7.50;;;;;16.19;69.98;99919.16;5116793;28;8836;-62
2023/05/07 06:14:20;;;;;;;;;6.75;6.50;;;;;16.30;69.56;99915.34;5116672;28;8823;-62
2023/05/07 06:16:48;;;;;;;;;8.00;8.00;;;;;16.42;69.39;99916.81;5116640;28;8840;-59
2023/05/07 06:19:17;;;;;;;;;7.00;7.00;;;;;16.54;69.14;99921.75;5116616;28;8913;-61
2023/05/07 06:21:46;;;;;;;;;6.00;5.50;;;;;16.66;69.22;99925.00;5116735;28;8835;-62
2023/05/07 06:24:14;;;;;;;;;4.00;4.00;;;;;16.78;68.92;99932.63;5116784;28;8848;-62
2023/05/07 06:26:41;;;;;;;;;7.00;6.00;;;;;16.89;69.02;99937.72;5116882;28;8894;-60
2023/05/07 06:29:09;;;;;;;;;9.00;7.00;;;;;16.99;68.54;99934.88;5116675;28;8827;-62
2023/05/07 06:31:37;;;;;;;;;7.00;7.00;;;;;17.12;68.30;99928.03;5116470;28;8828;-61
2023/05/07 06:34:05;;;;;;;;;7.00;7.00;;;;;17.21;68.52;99918.97;5116190;28;8966;-61
2023/05/07 06:36:33;;;;;;;;;7.00;6.20;;;;;17.32;68.28;99926.72;5116230;28;8851;-61
2023/05/07 06:39:01;;;;;;;;;7.00;6.00;;;;;17.40;68.28;99931.34;5116095;28;8842;-60
2023/05/07 06:41:28;;;;;;;;;4.00;3.60;;;;;17.49;67.87;99935.72;5116239;28;8828;-63
2023/05/07 06:44:00;;;;;;;;;7.00;7.00;;;;;17.61;68.04;99943.31;5116510;28;8836;-61
2023/05/07 06:46:29;;;;;;;;;7.00;7.00;;;;;17.73;67.80;99935.75;5116135;28;9512;-60
2023/05/07 06:48:57;;;;;;;;;6.00;6.00;;;;;17.85;67.58;99934.41;5115961;28;8831;-63
2023/05/07 06:51:25;;;;;;;;;4.00;3.20;;;;;17.98;67.73;99938.28;5116211;28;8827;-62
2023/05/07 06:53:53;;;;;;;;;7.00;6.40;;;;;18.09;67.48;99939.78;5116451;28;8839;-62
2023/05/07 06:56:20;;;;;;;;;6.60;6.60;;;;;18.21;67.20;99936.56;5116537;28;8855;-62
2023/05/07 06:58:48;;;;;;;;;6.00;6.00;;;;;18.29;66.70;99928.47;5116696;28;8871;-62
2023/05/07 07:01:16;;;;;;;;;4.40;4.40;;;;;18.33;67.25;99935.25;5116602;28;8824;-62
2023/05/07 07:03:45;;;;;;;;;6.40;6.40;;;;;18.36;67.09;99944.88;5116210;28;8803;-62
2023/05/07 07:06:13;;;;;;;;;9.00;9.00;;;;;18.40;66.90;99946.19;5116162;28;9501;-62
2023/05/07 07:08:41;;;;;;;;;6.60;6.40;;;;;18.39;67.01;99941.81;5115862;28;8848;-61
2023/05/07 07:11:09;;;;;;;;;5.60;5.60;;;;;18.39;67.25;99937.28;5115844;28;8816;-62
2023/05/07 07:13:37;;;;;;;;;5.20;4.40;;;;;18.40;67.23;99940.78;5116327;28;8935;-62
2023/05/07 07:16:04;;;;;;;;;6.60;6.60;;;;;18.41;67.56;99935.25;5115881;28;8835;-62
2023/05/07 07:18:32;;;;;;;;;7.40;6.40;;;;;18.41;67.68;99929.84;5115792;28;8824;-61
2023/05/07 07:21:00;;;;;;;;;5.80;5.80;;;;;18.44;67.29;99926.78;5116155;28;8824;-60
2023/05/07 07:23:28;;;;;;;;;5.80;5.40;;;;;18.46;67.19;99935.56;5115749;28;8835;-59
2023/05/07 07:25:56;;;;;;;;;6.80;6.80;;;;;18.50;67.47;99939.59;5115781;28;8954;-62
2023/05/07 07:28:24;;;;;;;;;6.60;6.60;;;;;18.53;67.33;99933.84;5115688;28;8839;-61
2023/05/07 07:30:51;;;;;;;;;4.80;4.80;;;;;18.58;67.33;99936.88;5115787;28;9006;-61
2023/05/07 07:33:19;;;;;;;;;6.00;5.20;;;;;18.64;67.41;99946.13;5115681;28;8836;-61
2023/05/07 07:35:47;;;;;;;;;7.80;6.60;;;;;18.70;66.93;99940.91;5115758;28;8833;-60
2023/05/07 07:38:15;;;;;;;;;5.80;4.00;;;;;18.78;66.98;99940.88;5116091;28;8843;-60
2023/05/07 07:40:43;;;;;;;;;7.00;5.80;;;;;18.84;66.60;99940.19;5116201;28;8832;-60
2023/05/07 07:43:11;;;;;;;;;3.00;3.00;;;;;18.90;67.16;99942.16;5115589;28;8978;-60
2023/05/07 07:45:39;;;;;;;;;3.60;3.40;;;;;18.92;67.19;99937.44;5117046;28;8853;-60
2023/05/07 07:48:07;;;;;;;;;4.00;3.40;;;;;18.95;67.20;99947.88;5116452;28;8828;-61
2023/05/07 07:50:35;;;;;;;;;7.00;7.00;;;;;18.95;67.08;99942.47;5115910;28;8847;-62
2023/05/07 07:53:12;;;;;;;;;3.20;2.80;;;;;18.94;66.78;99946.19;5115676;28;8823;-61
2023/05/07 07:55:40;;;;;;;;;7.00;7.00;;;;;18.94;67.04;99948.91;5116256;28;8836;-62
2023/05/07 07:58:08;;;;;;;;;7.60;6.80;;;;;18.98;67.02;99944.81;5120140;28;8924;-62
2023/05/07 08:00:36;;;;;;;;;6.40;6.40;;;;;19.02;67.17;99937.22;5119298;28;8854;-62
2023/05/07 08:03:04;;;;;;;;;7.40;6.80;;;;;19.06;67.01;99944.78;5119407;28;8812;-61
2023/05/07 08:05:32;;;;;;;;;5.40;5.40;;;;;19.09;66.50;99944.44;5119685;28;8831;-63
2023/05/07 08:08:00;;;;;;;;;6.60;6.60;;;;;19.13;66.67;99944.94;5119432;28;8962;-61
2023/05/07 08:10:28;;;;;;;;;5.80;5.20;;;;;19.18;66.51;99946.09;5119218;28;8847;-61
2023/05/07 08:12:56;;;;;;;;;4.60;4.60;;;;;19.20;66.86;99946.78;5119292;28;8929;-61
2023/05/07 08:15:24;;;;;;;;;7.60;7.20;;;;;19.26;66.84;99951.47;5119153;28;8819;-61
2023/05/07 08:17:52;;;;;;;;;7.20;7.20;;;;;19.31;66.96;99949.09;5118872;28;8862;-60
2023/05/07 08:20:20;;;;;;;;;5.60;5.20;;;;;19.41;66.35;99943.47;5118628;28;9493;-60
2023/05/07 08:22:48;;;;;;;;;7.60;6.80;;;;;19.49;66.81;99944.25;5118714;28;8862;-62
2023/05/07 08:25:16;;;;;;;;;8.20;6.20;;;;;19.60;66.37;99953.81;5118543;28;8851;-61
2023/05/07 08:27:44;;;;;;;;;5.00;4.80;;;;;19.71;66.16;99948.81;5118248;28;8828;-62
2023/05/07 08:30:12;;;;;;;;;6.20;4.80;;;;;19.82;66.30;99945.72;5118349;28;8855;-63
2023/05/07 08:32:40;;;;;;;;;7.40;5.00;;;;;19.94;65.19;99946.13;5118882;28;9582;-63
2023/05/07 08:35:10;;;;;;;;;6.60;6.60;;;;;20.03;65.64;99947.75;5118715;28;8840;-61
2023/05/07 08:37:38;;;;;;;;;3.40;2.40;;;;;20.10;65.42;99940.63;5118481;28;8921;-62
2023/05/07 08:40:06;;;;;;;;;8.20;7.20;;;;;20.18;65.17;99949.47;5117998;28;8986;-60
2023/05/07 08:42:38;;;;;;;;;6.20;4.60;;;;;20.25;65.19;99961.25;5117865;28;8835;-61
2023/05/07 08:45:06;;;;;;;;;4.00;4.00;;;;;20.28;65.03;99952.78;5119296;28;8874;-61
2023/05/07 08:47:34;;;;;;;;;5.00;5.00;;;;;20.35;65.04;99951.03;5118873;28;8835;-61
2023/05/07 08:50:02;;;;;;;;;5.00;4.60;;;;;20.43;64.85;99952.81;5118572;28;8844;-62
2023/05/07 08:52:30;;;;;;;;;5.00;5.00;;;;;20.52;64.61;99957.09;5117461;28;8847;-61
2023/05/07 08:54:57;;;;;;;;;6.20;6.20;;;;;20.59;64.71;99958.03;5117400;28;8824;-60
2023/05/07 08:57:26;;;;;;;;;4.80;3.60;;;;;20.68;64.30;99955.06;5118041;28;8820;-62
2023/05/07 08:59:54;;;;;;;;;9.20;7.60;;;;;20.83;64.40;99955.91;5119016;28;8843;-61
2023/05/07 09:02:22;;;;;;;;;7.80;7.00;;;;;20.97;64.17;99957.81;5118415;28;8969;-60
2023/05/07 09:04:50;;;;;;;;;4.80;4.80;;;;;21.15;63.60;99955.53;5118101;28;8843;-61
2023/05/07 09:07:18;;;;;;;;;7.00;7.00;;;;;21.32;63.02;99959.72;5117790;28;8835;-63
2023/05/07 09:09:46;;;;;;;;;7.20;7.00;;;;;21.44;63.23;99956.34;5117452;28;8840;-61
2023/05/07 09:12:14;;;;;;;;;6.20;6.20;;;;;21.53;62.67;99955.19;5118238;28;8852;-59
2023/05/07 09:14:41;;;;;;;;;7.00;6.20;;;;;21.68;62.36;99949.75;5117189;28;8965;-63
2023/05/07 09:17:09;;;;;;;;;5.00;5.00;;;;;21.83;62.47;99940.53;5117542;28;9873;-61
2023/05/07 09:19:38;;;;;;;;;6.80;6.20;;;;;21.96;61.85;99947.94;5117399;28;8831;-61
2023/05/07 09:22:06;;;;;;;;;6.20;6.20;;;;;21.99;62.39;99936.69;5117415;28;8840;-61
2023/05/07 09:24:37;;;;;;;;;6.80;5.40;;;;;22.01;61.76;99943.63;5117774;28;8847;-62
2023/05/07 09:27:05;;;;;;;;;7.40;5.60;;;;;21.98;62.25;99937.75;5116992;28;8929;-67
2023/05/07 09:29:35;;;;;;;;;7.20;6.00;;;;;21.99;62.06;99944.84;5116997;28;8937;-61
2023/05/07 09:32:03;;;;;;;;;5.20;5.00;;;;;22.00;61.90;99939.22;5117456;28;9524;-61
2023/05/07 09:34:31;;;;;;;;;4.20;4.00;;;;;22.02;61.88;99950.72;5117482;28;8854;-63
2023/05/07 09:37:00;;;;;;;;;4.80;4.20;;;;;22.12;61.65;99939.53;5115954;28;8832;-61
2023/05/07 09:39:28;;;;;;;;;4.80;4.80;;;;;22.42;61.41;99947.34;5116412;28;8831;-61
2023/05/07 09:41:58;;;;;;;;;5.00;5.00;;;;;22.89;60.14;99944.72;5116754;28;8878;-61
2023/05/07 09:44:26;;;;;;;;;5.40;5.40;;;;;23.50;59.36;99940.22;5116895;28;8924;-61
2023/05/07 09:46:54;;;;;;;;;6.40;5.80;;;;;24.01;58.16;99933.25;5117153;28;8847;-60
2023/05/07 09:49:23;;;;;;;;;6.40;6.40;;;;;24.32;57.65;99934.31;5116710;28;8847;-63
2023/05/07 09:51:51;;;;;;;;;6.00;6.00;;;;;24.48;57.59;99939.31;5116792;28;9511;-61
2023/05/07 09:54:19;;;;;;;;;5.00;5.00;;;;;24.60;57.47;99942.28;5116811;28;8866;-61
2023/05/07 09:56:47;;;;;;;;;7.00;6.20;;;;;24.62;57.64;99941.00;5117733;28;8950;-62
2023/05/07 09:59:15;;;;;;;;;7.00;6.20;;;;;24.73;57.19;99937.63;5118396;28;9529;-61
2023/05/07 10:01:44;;;;;;;;;6.60;6.60;;;;;24.83;57.04;99937.19;5117345;28;8879;-61
2023/05/07 10:04:13;;;;;;;;;7.00;6.20;;;;;24.91;56.62;99934.22;5117094;28;8844;-61
2023/05/07 10:06:41;;;;;;;;;9.00;7.60;;;;;24.96;57.25;99946.16;5116353;28;8843;-62
2023/05/07 10:09:09;;;;;;;;;7.20;6.60;;;;;24.97;56.87;99944.28;5115667;28;8819;-60
2023/05/07 10:11:37;;;;;;;;;10.00;9.40;;;;;24.96;56.83;99948.88;5114878;28;8824;-59
2023/05/07 10:14:05;;;;;;;;;12.40;11.60;;;;;25.01;56.81;99942.78;5115403;28;8844;-61
2023/05/07 10:16:36;;;;;;;;;12.20;11.40;;;;;25.06;57.10;99948.44;5114653;28;8916;-60
2023/05/07 10:19:04;;;;;;;;;12.00;11.60;;;;;24.98;57.49;99948.69;5114534;28;8897;-61
2023/05/07 10:21:32;;;;;;;;;10.80;10.60;;;;;24.85;57.65;99943.25;5115450;28;9548;-61
2023/05/07 10:24:01;;;;;;;;;11.00;11.00;;;;;24.68;57.96;99940.16;5116285;28;9554;-61
2023/05/07 10:26:29;;;;;;;;;11.00;10.00;;;;;24.64;57.96;99940.81;5115867;28;8827;-61
2023/05/07 10:28:57;;;;;;;;;16.20;15.40;;;;;25.00;57.13;99932.94;5116109;28;8872;-59
2023/05/07 10:31:25;;;;;;;;;16.00;15.20;;;;;25.47;56.19;99940.78;5116258;28;8934;-60
2023/05/07 10:33:53;;;;;;;;;13.20;13.20;;;;;25.73;55.62;99936.00;5116802;28;8829;-59
2023/05/07 10:36:21;;;;;;;;;17.80;14.20;;;;;25.43;56.47;99939.53;5116360;28;8832;-60
2023/05/07 10:38:50;;;;;;;;;11.80;11.40;;;;;24.98;57.08;99946.81;5116455;28;8820;-59
2023/05/07 10:41:18;;;;;;;;;11.00;11.00;;;;;24.54;57.99;99948.53;5115942;28;9578;-59
2023/05/07 10:43:46;;;;;;;;;10.80;10.40;;;;;24.19;58.62;99949.81;5115724;28;8978;-61
2023/05/07 10:46:14;;;;;;;;;11.40;10.00;;;;;23.92;59.56;99954.38;5117108;28;8839;-59
2023/05/07 10:48:42;;;;;;;;;17.60;15.20;;;;;23.70;60.61;99952.84;5114914;28;9009;-59
2023/05/07 10:51:11;;;;;;;;;16.20;15.40;;;;;23.55;59.96;99954.03;5116192;28;8831;-61
2023/05/07 10:53:39;;;;;;;;;18.40;17.80;;;;;23.43;60.13;99948.34;5115412;28;8836;-60
2023/05/07 10:56:07;;;;;;;;;10.80;9.80;;;;;23.45;60.28;99951.69;5115515;28;8937;-60
2023/05/07 10:58:36;;;;;;;;;10.60;9.60;;;;;23.50;59.85;99946.50;5115413;28;8836;-58
2023/05/07 11:01:04;;;;;;;;;11.60;10.20;;;;;23.55;59.85;99946.72;5115223;28;8839;-59
2023/05/07 11:03:33;;;;;;;;;11.00;10.80;;;;;23.55;59.73;99951.31;5115518;28;8950;-60
2023/05/07 11:06:00;;;;;;;;;11.20;9.40;;;;;23.52;60.25;99946.31;5115814;28;8920;-59
2023/05/07 11:08:29;;;;;;;;;11.80;10.80;;;;;23.45;59.56;99950.88;5115267;28;8839;-60
2023/05/07 11:10:58;;;;;;;;;12.00;9.40;;;;;23.33;60.25;99952.50;5115594;28;9583;-60
2023/05/07 11:13:26;;;;;;;;;13.20;12.60;;;;;23.17;60.19;99944.69;5115474;28;8982;-63
2023/05/07 11:15:54;;;;;;;;;8.60;8.60;;;;;23.06;60.44;99945.25;5115990;28;8832;-59
2023/05/07 11:18:22;;;;;;;;;9.80;9.20;;;;;22.98;60.99;99942.69;5116340;28;8820;-60
2023/05/07 11:20:50;;;;;;;;;9.20;9.00;;;;;22.91;60.75;99944.53;5115847;28;8828;-59
2023/05/07 11:23:18;;;;;;;;;8.40;8.40;;;;;22.82;60.79;99941.13;5115355;28;8850;-60
2023/05/07 11:25:46;;;;;;;;;10.00;10.00;;;;;22.74;61.20;99940.44;5114945;28;8855;-60
2023/05/07 11:28:14;;;;;;;;;8.80;8.00;;;;;22.65;60.97;99938.94;5115264;28;8918;-59
2023/05/07 11:30:42;;;;;;;;;10.00;9.60;;;;;22.59;61.26;99937.84;5115426;28;8840;-59
2023/05/07 11:33:10;;;;;;;;;9.80;9.00;;;;;22.51;61.52;99939.88;5119354;28;8965;-60
2023/05/07 11:35:38;;;;;;;;;8.20;7.20;;;;;22.45;61.51;99946.94;5119389;28;8843;-61
2023/05/07 11:38:06;;;;;;;;;8.40;6.40;;;;;22.38;61.76;99939.78;5119670;28;8816;-59